Flight Track Log - Related Links

Times and Time Zones

All times are in EDT time to prevent confusion due to time zone crossing. See the SKW5580 flight status page for this flight to view local times or setup timezone preferences in your user account.

Time Position Orientation Groundspeed Altitude Reporting Facility
EDT Latitude Longitude Course Direction KTS MPH feet Rate Location/Type
Thu 10:14:25 AM 38.6667 -121.5833 78° East 165 190 800  Level Northern Cal TRACON
Thu 10:15:25 AM 38.6333 -121.5333 130° Southeast 214 246 2,300 1,605 Climbing Northern Cal TRACON
Thu 10:17:00 AM 38.5333 -121.1005 76° East  Level FlightAware Approximate
Thu 10:17:17 AM 38.6036 -121.3883 105° East 258 297 5,400  Level Oakland Center
Thu 10:18:00 AM 38.5626 -120.9417 78° East  Level FlightAware Approximate
Thu 10:18:13 AM 38.6000 -121.2833 92° East 285 328 8,200  Level Northern Cal TRACON
Thu 10:19:00 AM 38.5892 -120.7821 78° East  Level FlightAware Approximate
Thu 10:19:13 AM 38.6000 -121.1667 90° East 284 327 10,500  Level Northern Cal TRACON
Thu 10:20:20 AM 38.6031 -121.0658 88° East 306 352 11,200 744 Climbing Oakland Center
Thu 10:21:22 AM 38.6031 -120.9386 90° East 352 405 12,100 976 Climbing Oakland Center
Thu 10:22:23 AM 38.6031 -120.8075 90° East 365 420 13,200 1,131 Climbing Oakland Center
Thu 10:23:24 AM 38.6025 -120.6758 90° East 370 426 14,400 1,082 Climbing Oakland Center
Thu 10:24:25 AM 38.6011 -120.5400 91° East 379 436 15,400 1,171 Climbing Oakland Center
Thu 10:25:27 AM 38.6011 -120.4036 90° East 383 441 16,800 1,122 Climbing Oakland Center
Thu 10:26:28 AM 38.5997 -120.2394 91° East 384 442 17,700 934 Climbing Oakland Center
Thu 10:27:29 AM 38.5978 -120.0992 91° East 392 451 18,700 885 Climbing Oakland Center
Thu 10:28:30 AM 38.5997 -119.9578 89° East 398 458 19,500 634 Climbing Oakland Center
Thu 10:29:32 AM 38.5961 -119.8136 92° East 406 467 20,000 488 Climbing Oakland Center
Thu 10:30:33 AM 38.5961 -119.6647 90° East 413 475 20,500 492 Climbing Oakland Center
Thu 10:31:34 AM 38.5931 -119.5133 91° East 424 488 21,000 488 Climbing Oakland Center
Thu 10:32:36 AM 38.5908 -119.3628 91° East 424 488 21,500 488 Climbing Oakland Center
Thu 10:33:37 AM 38.5883 -119.2103 91° East 429 494 22,000 492 Climbing Oakland Center
Thu 10:34:38 AM 38.5869 -119.0550 91° East 435 501 22,500 585 Climbing Oakland Center
Thu 10:35:40 AM 38.5836 -118.8675 91° East 441 507 23,200 585 Climbing Oakland Center
Thu 10:36:41 AM 38.5806 -118.7114 91° East 442 509 23,700 492 Climbing Oakland Center
Thu 10:37:42 AM 38.5783 -118.5547 91° East 444 511 24,200 488 Climbing Oakland Center
Thu 10:38:44 AM 38.5747 -118.3961 92° East 447 514 24,700 488 Climbing Oakland Center
Thu 10:39:45 AM 38.5706 -118.2372 92° East 449 517 25,200 488 Climbing Oakland Center
Thu 10:40:47 AM 38.5667 -118.0628 92° East 448 516 25,700 488 Climbing Oakland Center
Thu 10:41:48 AM 38.5606 -117.9033 93° East 449 517 26,200 492 Climbing Oakland Center
Thu 10:42:49 AM 38.5536 -117.7433 93° East 449 517 26,700 488 Climbing Oakland Center
Thu 10:43:51 AM 38.5469 -117.5844 93° East 446 513 27,200 537 Climbing Oakland Center
Thu 10:44:52 AM 38.5389 -117.4236 94° East 450 518 27,800 541 Climbing Oakland Center
Thu 10:45:53 AM 38.5317 -117.2628 93° East 450 518 28,300 488 Climbing Oakland Center
Thu 10:46:55 AM 38.5231 -117.1017 94° East 451 519 28,800 488 Climbing Oakland Center
Thu 10:47:56 AM 38.5158 -116.9408 93° East 449 517 29,300 488 Climbing Oakland Center
Thu 10:48:58 AM 38.5067 -116.7803 94° East 450 518 29,800 488 Climbing Oakland Center
Thu 10:49:59 AM 38.4978 -116.6200 94° East 450 518 30,300 492 Climbing Oakland Center
Thu 10:51:00 AM 38.4897 -116.4600 94° East 450 518 30,800 488 Climbing Oakland Center
Thu 10:52:02 AM 38.4825 -116.2994 93° East 451 519 31,300 537 Climbing Oakland Center
Thu 10:53:03 AM 38.4903 -116.1081 87° East 450 518 31,900 503 Climbing Oakland Center
Thu 10:54:25 AM 38.4964 -115.9161 88° East 452 520 32,500 458 Climbing Salt Lake Center
Thu 10:55:27 AM 38.5019 -115.7583 87° East 447 514 33,000 242 Climbing Salt Lake Center
Thu 10:56:29 AM 38.5067 -115.5647 88° East 455 524 33,000  Level Salt Lake Center
Thu 10:58:33 AM 38.5150 -115.2256 88° East 478 550 33,000  Level Salt Lake Center
Thu 10:59:35 AM 38.5192 -115.0542 88° East 483 556 33,000  Level Salt Lake Center
Thu 11:00:37 AM 38.5231 -114.8811 88° East 488 562 33,000  Level Salt Lake Center
Thu 11:01:39 AM 38.5269 -114.7061 88° East 492 566 33,000  Level Salt Lake Center
Thu 11:02:41 AM 38.5306 -114.5317 88° East 492 566 33,000  Level Salt Lake Center
Thu 11:03:43 AM 38.5339 -114.3200 89° East 496 571 33,000  Level Salt Lake Center
Thu 11:04:45 AM 38.5372 -114.1447 89° East 493 567 33,000  Level Salt Lake Center
Thu 11:05:47 AM 38.5397 -113.9678 89° East 497 572 33,000  Level Salt Lake Center
Thu 11:06:49 AM 38.5428 -113.7908 89° East 498 573 33,000  Level Salt Lake Center
Thu 11:07:51 AM 38.5436 -113.6169 90° East 492 566 33,000  Level Salt Lake Center
Thu 11:08:53 AM 38.5456 -113.4428 89° East 490 564 33,000  Level Salt Lake Center
Thu 11:09:55 AM 38.5467 -113.2297 90° East 496 571 33,000  Level Salt Lake Center
Thu 11:10:57 AM 38.5486 -113.0528 89° East 497 572 33,000  Level Salt Lake Center
Thu 11:11:59 AM 38.5492 -112.8769 90° East 496 571 33,000  Level Salt Lake Center
Thu 11:13:01 AM 38.5492 -112.7008 90° East 495 570 33,000  Level Salt Lake Center
Thu 11:14:03 AM 38.5494 -112.5247 90° East 495 570 33,000  Level Salt Lake Center
Thu 11:15:05 AM 38.5500 -112.3478 90° East 496 571 33,000  Level Salt Lake Center
Thu 11:16:07 AM 38.5508 -112.1711 90° East 496 571 33,000  Level Salt Lake Center
Thu 11:17:09 AM 38.5497 -111.9597 90° East 496 571 33,000  Level Salt Lake Center
Thu 11:18:11 AM 38.5492 -111.7839 90° East 495 570 33,000  Level Salt Lake Center
Thu 11:19:13 AM 38.5481 -111.6067 90° East 497 572 33,000  Level Salt Lake Center
Thu 11:20:15 AM 38.5469 -111.4292 90° East 499 574 33,000  Level Salt Lake Center
Thu 11:21:18 AM 38.5456 -111.2536 91° East 496 571 33,000  Level Salt Lake Center
Thu 11:22:20 AM 38.5442 -111.0769 91° East 497 572 33,000  Level Salt Lake Center
Thu 11:23:22 AM 38.5400 -110.8706 91° East 497 572 33,000  Level Salt Lake Center
Thu 11:24:24 AM 38.5389 -110.7022 90° East 497 572 33,000  Level Salt Lake Center
Thu 11:25:26 AM 38.5356 -110.5047 91° East 498 573 33,000  Level Salt Lake Center
Thu 11:26:28 AM 38.5328 -110.3358 91° East 499 574 33,000  Level Salt Lake Center
Thu 11:27:29 AM 38.5275 -110.1653 92° East 498 573 33,000  Level Denver Center
Thu 11:28:31 AM 38.5231 -109.9681 92° East 499 574 33,000  Level Denver Center
Thu 11:29:33 AM 38.5200 -109.7983 91° East 500 575 33,000  Level Denver Center
Thu 11:30:35 AM 38.5156 -109.6006 92° East 502 578 33,000  Level Denver Center
Thu 11:31:37 AM 38.5122 -109.4333 91° East 497 572 33,000  Level Denver Center
Thu 11:32:39 AM 38.5058 -109.2364 92° East 497 572 33,000  Level Denver Center
Thu 11:33:41 AM 38.5014 -109.0656 92° East 501 577 33,000  Level Denver Center
Thu 11:34:43 AM 38.4961 -108.8700 92° East 497 572 33,000  Level Denver Center
Thu 11:35:45 AM 38.4911 -108.7011 92° East 498 573 33,000  Level Denver Center
Thu 11:36:47 AM 38.4847 -108.5047 92° East 497 572 33,000  Level Denver Center
Thu 11:37:49 AM 38.4789 -108.3350 92° East 501 577 33,000  Level Denver Center
Thu 11:38:51 AM 38.4722 -108.1394 92° East 497 572 33,000  Level Denver Center
Thu 11:39:53 AM 38.4792 -107.9717 87° East 497 572 33,000  Level Denver Center
Thu 11:40:55 AM 38.5389 -107.7953 67° East 485 558 33,000 -629 Level Denver Center
Thu 11:41:57 AM 38.5964 -107.6458 64° Northeast 487 560 31,700 -960 Descending Denver Center
Thu 11:43:00 AM 38.6678 -107.4592 64° Northeast 515 593 31,000 -336 Descending Denver Center
Thu 11:44:02 AM 38.7264 -107.3056 64° Northeast 507 583 31,000  Level Denver Center
Thu 11:45:04 AM 38.7856 -107.1494 64° Northeast 497 572 31,000  Level Denver Center
Thu 11:46:06 AM 38.8444 -106.9922 64° Northeast 491 565 31,000  Level Denver Center
Thu 11:47:08 AM 38.9142 -106.8036 65° Northeast 486 559 31,000  Level Denver Center
Thu 11:48:10 AM 38.9694 -106.6558 64° Northeast 482 555 31,000 -871 Level Denver Center
Thu 11:49:12 AM 39.0264 -106.4992 65° Northeast 436 502 29,200 -1,790 Descending Denver Center
Thu 11:50:14 AM 39.0750 -106.3700 64° Northeast 421 484 27,300 -1,984 Descending Denver Center
Thu 11:51:16 AM 39.1683 -106.2831 36° Northeast 387 445 25,100 -1,790 Descending Denver Center
Thu 11:52:18 AM 39.1906 -106.1681 76° East 380 437 23,600 -1,645 Descending Denver Center
Thu 11:53:20 AM 39.1994 -106.0375 85° East 368 423 21,700 -1,935 Descending Denver Center
Thu 11:54:22 AM 39.2342 -105.8997 72° East 346 398 19,600 -1,935 Descending Denver Center
Thu 11:55:24 AM 39.2758 -105.7947 63° Northeast 332 382 17,700 -1,258 Descending Denver Center
Thu 11:56:26 AM 39.3167 -105.6842 64° Northeast 337 388 17,000 -339 Descending Denver Center
Thu 11:57:28 AM 39.3636 -105.5669 63° Northeast 364 419 17,000  Level Denver Center
Thu 11:58:30 AM 39.3997 -105.4447 69° East 341 392 17,000 -290 Level Denver Center
Thu 11:59:32 AM 39.4014 -105.3250 89° East 333 383 16,400 -1,016 Descending Denver Center
Thu 12:00:34 PM 39.4075 -105.1942 86° East 343 395 14,900 -1,392 Descending Denver Center
Thu 12:01:37 PM 39.4125 -105.0817 87° East 321 369 13,500 -1,152 Descending Denver Center
Thu 12:02:39 PM 39.4319 -104.9714 77° East 299 344 12,500 -774 Descending Denver Center
Thu 12:03:41 PM 39.4747 -104.8656 62° Northeast 330 380 11,900 -1,258 Descending Denver Center
Thu 12:04:43 PM 39.5625 -104.7883 34° Northeast 348 400 9,900 -1,403 Descending Denver Center
Thu 12:05:45 PM 39.6275 -104.7361 32° Northeast 271 312 9,000 -484 Descending Denver Center
Thu 12:06:47 PM 39.6767 -104.6961 32° Northeast 193 222 8,900 -97 Descending Denver Center

Login

Don't have an account? Register now (free) for customized features, flight alerts, and more!